Main page
METAR-TAF:

METAR-TAF

Airports :

Roskilde Airport

Roskilde, Denmark

latitude: 55-35N, longitude: 012-08E, elevation: 44 m

Current weather observation

The report was made 42 minutes ago, at 04:50 UTC
Calm wind
Temperature 12°C
Humidity 88%
Pressure 1017 hPa
Visibility 10 km or more

METAR: EKRK 210450Z AUTO 00000KT 9999 BKN170/// 12/10 Q1017

Time: 07:32 (05:32 UTC)

Forecast

The report was made 3 hours and 28 minutes ago, at 02:04 UTC
Forecast valid from 21 at 03 UTC to 21 at 12 UTC
Wind 3 kt from variable directions
Visibility 10 km or more
no clouds below 1500 m and no cumulonimbus
Becoming
from 21 at 06 UTC to 21 at 09 UTC
Wind 10 kt from the East/Southeast

TAF: EKRK 210204Z 2103/2112 VRB03KT CAVOK BECMG 2106/2109 12010KT

Weather observations and forecasts of more than 4000 airports (METAR and TAF reports).

The available stations are represented by yellow and red dots on the map.

Hover mouse over dot to see the name of the station.

Then click to see weather observations and forecasts.

To change the map : click on the green buttons with a black cross to zoom in, on the green button with a dash to zoom out, or on the green arrows for adjacent maps.


METAR-TAF: